This is the latest recevied weather packets stored in our database for station/object HB9BVR. If no packets are shown the sender has not sent any weather packets the latest 10 day(s).
| Time | Temp. | Humidity | Pressure | Rain* | Wind** | Luminosity | Snow |
|---|---|---|---|---|---|---|---|
| 1788374014 | 22.78° C | 53% | - | 0 mm | - | - | - |
| 1788373114 | 23.33° C | 53% | - | 0 mm | - | - | - |
| 1788362316 | 27.78° C | 39% | - | 0 mm | - | - | - |
| 1788357815 | 27.78° C | 39% | - | 0 mm | - | - | - |
| 1788342515 | 23.33° C | 54% | - | 0 mm | - | - | - |
| 1788339815 | 22.22° C | 62% | - | 0 mm | - | - | - |
| 1788335314 | 20.56° C | 66% | - | 0 mm | - | - | - |
| 1788311012 | 16.67° C | 72% | - | 0 mm | - | - | - |
| 1788306511 | 18.33° C | 67% | - | 0 mm | - | - | - |
| 1788304714 | 18.33° C | 65% | - | 0 mm | - | - | - |
| 1788298413 | 18.89° C | 62% | - | 0 mm | - | - | - |
| 1788297513 | 18.89° C | 62% | - | 0 mm | - | - | - |
| 1788268711 | 26.67° C | 42% | - | 0 mm | - | - | - |
| 1788266010 | 26.67° C | 42% | - | 0 mm | - | - | - |
| 1788244410 | 15.56° C | 74% | - | 0 mm | - | - | - |
| 1788230911 | 16.11° C | 68% | - | 0 mm | - | - | - |
| 1788225509 | 16.67° C | 66% | - | 0 mm | - | - | - |
| 1788212911 | 18.89° C | 61% | - | 0 mm | - | - | - |
| 1788212011 | 18.89° C | 58% | - | 0 mm | - | - | - |
| 1788202108 | 21.67° C | 50% | - | 0 mm | - | - | - |
| 1788201208 | 22.22° C | 49% | - | 0 mm | - | - | - |
| 1788199408 | 22.78° C | 47% | - | 0 mm | - | - | - |
| 1788192206 | 25.56° C | 37% | - | 0 mm | - | - | - |
| 1788180508 | 26.67° C | 47% | - | 0 mm | - | - | - |
| 1788179608 | 27.78° C | 47% | - | 0 mm | - | - | - |
* Rain latest hour (hover to see other rain measurements)
** Current wind speed in m/s (hover to see current wind gust speed)